Airfield :
LOGIN :

Register | Disclaimer

   EN    FR    IT 

 










Legend :    VFR   Marginal VFR   IFR   Intensive IFR   Very Intensive IFR
Visi :
Ceiling :
>= 8 km
>= 3000ft
5 to 8 km
1000 to 3000 ft
1500m to 5 km
500 to 1000 ft
800 to 1500m
200 to 500 ft
< 800m
< 200 ft
Symbols :   Thunderstorms  Fog  Heavy snow  Heavy precipitations  Wind > 20 kt
SIGMETs :     Misc.  Thunderstorms  Icing  Turbulence  Mountain Waves  Volcanic Ashes







- Airport Elevation : 183 ft
- IATA code : HAJ


EDDV - Hanover/Langenhagen Int.

CURRENT METAR :
  • 242050Z 26004KT 9999 BKN047 06/01 Q1021 NOSIG

EXPIRED METARs :
  • 242020Z 25004KT 9999 BKN047 06/00 Q1021 NOSIG
  • 241950Z 26004KT 9999 SCT045 04/M01 Q1022 NOSIG
  • 241920Z 26006KT 9999 FEW045 05/M01 Q1022 NOSIG
  • 241850Z 24005KT 9999 SCT045 06/M01 Q1022 NOSIG
  • 241820Z 25005KT 9999 FEW042 06/M01 Q1022 NOSIG

TAF TAF EDDV
Valid from the 24 at 18:00 until the 25 at 18:00 UTC


241700Z 2418/2518 28010KT 9999 FEW040
TEMPO 2502/2507 26015G25KT 4000 SHRA BKN012CB
PROB30
TEMPO 2503/2507 BKN008
BECMG 2507/2509 29015G25KT
TEMPO 2507/2518 4000 SHRA BKN012CB
PROB30
TEMPO 2510/2515 30020G35KT 2500 TSGS BKN008CB
BECMG 2516/2518 30012KT
No reported NOTAMs for that airfield.



MET'MAP, your aeronautical weather chart ! - Copyright ORBIFLY December 2007 - Disclaimer

ORBIFLY MET'MAP TEAM :

Programming & Development : Alexandra Zaïnal
Concept & Development : Baudouin d'Aumeries
Co-Development & Prog : Marc-Olivier Méhu
Technical & hardware support : Manuel Goepfert

Contact : metmap@orbifly.com




SOURCES & CREDITS :

   NOAA